sensor_id;sensor_type;location;lat;lon;timestamp;temperature;humidity
7411;DHT22;3747;48.628;9.058;2023-08-01T00:02:04;16.60;99.90
7411;DHT22;3747;48.628;9.058;2023-08-01T00:04:31;16.50;99.90
7411;DHT22;3747;48.628;9.058;2023-08-01T00:06:57;16.50;99.90
7411;DHT22;3747;48.628;9.058;2023-08-01T00:09:24;16.60;99.90
7411;DHT22;3747;48.628;9.058;2023-08-01T00:11:51;16.60;99.90
7411;DHT22;3747;48.628;9.058;2023-08-01T00:14:17;16.60;99.90
7411;DHT22;3747;48.628;9.058;2023-08-01T00:16:47;16.60;99.90
7411;DHT22;3747;48.628;9.058;2023-08-01T00:19:13;16.70;99.90
7411;DHT22;3747;48.628;9.058;2023-08-01T00:21:40;16.70;99.90
7411;DHT22;3747;48.628;9.058;2023-08-01T00:24:07;16.70;99.90
7411;DHT22;3747;48.628;9.058;2023-08-01T00:26:33;16.70;99.90
7411;DHT22;3747;48.628;9.058;2023-08-01T00:29:00;16.70;99.90
7411;DHT22;3747;48.628;9.058;2023-08-01T00:31:27;16.60;99.90
7411;DHT22;3747;48.628;9.058;2023-08-01T00:33:55;16.70;99.90
7411;DHT22;3747;48.628;9.058;2023-08-01T00:36:22;16.60;99.90
7411;DHT22;3747;48.628;9.058;2023-08-01T00:38:49;16.70;99.90
7411;DHT22;3747;48.628;9.058;2023-08-01T00:41:16;16.60;99.90
7411;DHT22;3747;48.628;9.058;2023-08-01T00:43:42;16.60;99.90
7411;DHT22;3747;48.628;9.058;2023-08-01T00:46:10;16.60;99.90
7411;DHT22;3747;48.628;9.058;2023-08-01T00:48:36;16.50;99.90
7411;DHT22;3747;48.628;9.058;2023-08-01T00:51:05;16.50;99.90
7411;DHT22;3747;48.628;9.058;2023-08-01T00:53:34;16.50;99.90
7411;DHT22;3747;48.628;9.058;2023-08-01T00:56:01;16.60;99.90
7411;DHT22;3747;48.628;9.058;2023-08-01T00:58:28;16.60;99.90
7411;DHT22;3747;48.628;9.058;2023-08-01T01:00:55;16.60;99.90
7411;DHT22;3747;48.628;9.058;2023-08-01T01:03:22;16.70;99.90
7411;DHT22;3747;48.628;9.058;2023-08-01T01:05:56;16.70;99.90
7411;DHT22;3747;48.628;9.058;2023-08-01T01:08:25;16.80;99.90
7411;DHT22;3747;48.628;9.058;2023-08-01T01:10:51;16.90;99.90
7411;DHT22;3747;48.628;9.058;2023-08-01T01:13:18;16.90;99.90
7411;DHT22;3747;48.628;9.058;2023-08-01T01:15:45;17.00;99.90
7411;DHT22;3747;48.628;9.058;2023-08-01T01:18:11;16.90;99.90
7411;DHT22;3747;48.628;9.058;2023-08-01T01:20:39;16.50;99.90
7411;DHT22;3747;48.628;9.058;2023-08-01T01:23:08;16.20;99.90
7411;DHT22;3747;48.628;9.058;2023-08-01T01:25:36;16.00;99.90
7411;DHT22;3747;48.628;9.058;2023-08-01T01:28:04;15.90;99.90
7411;DHT22;3747;48.628;9.058;2023-08-01T01:30:32;15.80;99.90
7411;DHT22;3747;48.628;9.058;2023-08-01T01:33:00;15.80;99.90
7411;DHT22;3747;48.628;9.058;2023-08-01T01:35:27;15.80;99.90
7411;DHT22;3747;48.628;9.058;2023-08-01T01:37:55;15.70;99.90
7411;DHT22;3747;48.628;9.058;2023-08-01T01:40:24;15.70;99.90
7411;DHT22;3747;48.628;9.058;2023-08-01T01:42:50;15.80;99.90
7411;DHT22;3747;48.628;9.058;2023-08-01T01:45:17;15.80;99.90
7411;DHT22;3747;48.628;9.058;2023-08-01T01:47:44;15.70;99.90
7411;DHT22;3747;48.628;9.058;2023-08-01T01:50:10;15.70;99.90
7411;DHT22;3747;48.628;9.058;2023-08-01T01:52:37;15.70;99.90
7411;DHT22;3747;48.628;9.058;2023-08-01T01:55:06;15.70;99.90
7411;DHT22;3747;48.628;9.058;2023-08-01T01:57:33;15.70;99.90
7411;DHT22;3747;48.628;9.058;2023-08-01T02:00:01;15.80;99.90
7411;DHT22;3747;48.628;9.058;2023-08-01T02:02:28;15.80;99.90
7411;DHT22;3747;48.628;9.058;2023-08-01T02:04:55;15.80;99.90
7411;DHT22;3747;48.628;9.058;2023-08-01T02:07:21;15.80;99.90
7411;DHT22;3747;48.628;9.058;2023-08-01T02:09:48;15.80;99.90
7411;DHT22;3747;48.628;9.058;2023-08-01T02:12:16;15.80;99.90
7411;DHT22;3747;48.628;9.058;2023-08-01T02:14:43;15.80;99.90
7411;DHT22;3747;48.628;9.058;2023-08-01T02:17:09;15.80;99.90
7411;DHT22;3747;48.628;9.058;2023-08-01T02:19:36;15.80;99.90
7411;DHT22;3747;48.628;9.058;2023-08-01T02:22:03;15.80;99.90
7411;DHT22;3747;48.628;9.058;2023-08-01T02:24:30;15.90;99.90
7411;DHT22;3747;48.628;9.058;2023-08-01T02:26:57;16.00;99.90
7411;DHT22;3747;48.628;9.058;2023-08-01T02:29:25;16.00;99.90
7411;DHT22;3747;48.628;9.058;2023-08-01T02:31:52;16.00;99.90
7411;DHT22;3747;48.628;9.058;2023-08-01T02:34:20;16.10;99.90
7411;DHT22;3747;48.628;9.058;2023-08-01T02:36:47;16.20;99.90
7411;DHT22;3747;48.628;9.058;2023-08-01T02:39:13;16.20;99.90
7411;DHT22;3747;48.628;9.058;2023-08-01T02:41:40;16.20;99.90
7411;DHT22;3747;48.628;9.058;2023-08-01T02:44:07;16.30;99.90
7411;DHT22;3747;48.628;9.058;2023-08-01T02:46:35;16.40;99.90
7411;DHT22;3747;48.628;9.058;2023-08-01T02:49:02;16.40;99.90
7411;DHT22;3747;48.628;9.058;2023-08-01T02:51:29;16.40;99.90
7411;DHT22;3747;48.628;9.058;2023-08-01T02:53:55;16.40;99.90
7411;DHT22;3747;48.628;9.058;2023-08-01T02:56:22;16.40;99.90
7411;DHT22;3747;48.628;9.058;2023-08-01T02:58:49;16.50;99.90
7411;DHT22;3747;48.628;9.058;2023-08-01T03:01:17;16.50;99.90
7411;DHT22;3747;48.628;9.058;2023-08-01T03:03:45;16.60;99.90
7411;DHT22;3747;48.628;9.058;2023-08-01T03:06:12;16.50;99.90
7411;DHT22;3747;48.628;9.058;2023-08-01T03:08:39;16.50;99.90
7411;DHT22;3747;48.628;9.058;2023-08-01T03:11:06;16.60;99.90
7411;DHT22;3747;48.628;9.058;2023-08-01T03:13:33;16.60;99.90
7411;DHT22;3747;48.628;9.058;2023-08-01T03:15:59;16.60;99.90
7411;DHT22;3747;48.628;9.058;2023-08-01T03:18:26;16.80;99.90
7411;DHT22;3747;48.628;9.058;2023-08-01T03:20:54;16.70;99.90
7411;DHT22;3747;48.628;9.058;2023-08-01T03:23:21;16.70;99.90
7411;DHT22;3747;48.628;9.058;2023-08-01T03:25:48;16.80;99.90
7411;DHT22;3747;48.628;9.058;2023-08-01T03:28:14;16.80;99.90
7411;DHT22;3747;48.628;9.058;2023-08-01T03:30:41;16.90;99.90
7411;DHT22;3747;48.628;9.058;2023-08-01T03:33:08;16.90;99.90
7411;DHT22;3747;48.628;9.058;2023-08-01T03:35:34;16.90;99.90
7411;DHT22;3747;48.628;9.058;2023-08-01T03:38:02;17.10;99.90
7411;DHT22;3747;48.628;9.058;2023-08-01T03:40:29;17.10;99.90
7411;DHT22;3747;48.628;9.058;2023-08-01T03:42:56;17.00;99.90
7411;DHT22;3747;48.628;9.058;2023-08-01T03:45:23;17.10;99.90
7411;DHT22;3747;48.628;9.058;2023-08-01T03:47:49;17.10;99.90
7411;DHT22;3747;48.628;9.058;2023-08-01T03:50:17;17.20;99.90
7411;DHT22;3747;48.628;9.058;2023-08-01T03:52:43;17.20;99.90
7411;DHT22;3747;48.628;9.058;2023-08-01T03:55:12;17.20;99.90
7411;DHT22;3747;48.628;9.058;2023-08-01T03:57:39;17.30;99.90
7411;DHT22;3747;48.628;9.058;2023-08-01T04:00:06;17.30;99.90
7411;DHT22;3747;48.628;9.058;2023-08-01T04:02:39;17.20;99.90
7411;DHT22;3747;48.628;9.058;2023-08-01T04:05:06;17.20;99.90
7411;DHT22;3747;48.628;9.058;2023-08-01T04:07:34;17.20;99.90
7411;DHT22;3747;48.628;9.058;2023-08-01T04:10:01;17.10;99.90
7411;DHT22;3747;48.628;9.058;2023-08-01T04:12:30;17.10;99.90
7411;DHT22;3747;48.628;9.058;2023-08-01T04:14:57;17.00;99.90
7411;DHT22;3747;48.628;9.058;2023-08-01T04:17:23;17.10;99.90
7411;DHT22;3747;48.628;9.058;2023-08-01T04:19:50;17.10;99.90
7411;DHT22;3747;48.628;9.058;2023-08-01T04:22:17;17.10;99.90
7411;DHT22;3747;48.628;9.058;2023-08-01T04:24:44;17.10;99.90
7411;DHT22;3747;48.628;9.058;2023-08-01T04:27:10;17.10;99.90
7411;DHT22;3747;48.628;9.058;2023-08-01T04:29:37;17.10;99.90
7411;DHT22;3747;48.628;9.058;2023-08-01T04:32:05;17.00;99.90
7411;DHT22;3747;48.628;9.058;2023-08-01T04:34:32;17.00;99.90
7411;DHT22;3747;48.628;9.058;2023-08-01T04:36:58;17.00;99.90
7411;DHT22;3747;48.628;9.058;2023-08-01T04:39:25;17.00;99.90
7411;DHT22;3747;48.628;9.058;2023-08-01T04:41:52;17.00;99.90
7411;DHT22;3747;48.628;9.058;2023-08-01T04:44:18;16.90;99.90
7411;DHT22;3747;48.628;9.058;2023-08-01T04:46:47;16.90;99.90
7411;DHT22;3747;48.628;9.058;2023-08-01T04:49:14;16.90;99.90
7411;DHT22;3747;48.628;9.058;2023-08-01T04:51:41;16.90;99.90
7411;DHT22;3747;48.628;9.058;2023-08-01T04:54:07;16.90;99.90
7411;DHT22;3747;48.628;9.058;2023-08-01T04:56:34;16.90;99.90
7411;DHT22;3747;48.628;9.058;2023-08-01T04:59:01;16.90;99.90
7411;DHT22;3747;48.628;9.058;2023-08-01T05:01:28;17.00;99.90
7411;DHT22;3747;48.628;9.058;2023-08-01T05:03:56;17.00;99.90
7411;DHT22;3747;48.628;9.058;2023-08-01T05:06:23;17.00;99.90
7411;DHT22;3747;48.628;9.058;2023-08-01T05:08:50;17.00;99.90
7411;DHT22;3747;48.628;9.058;2023-08-01T05:11:16;17.10;99.90
7411;DHT22;3747;48.628;9.058;2023-08-01T05:13:43;17.10;99.90
7411;DHT22;3747;48.628;9.058;2023-08-01T05:16:10;17.20;99.90
7411;DHT22;3747;48.628;9.058;2023-08-01T05:18:36;17.10;99.90
7411;DHT22;3747;48.628;9.058;2023-08-01T05:21:04;17.20;99.90
7411;DHT22;3747;48.628;9.058;2023-08-01T05:23:31;17.20;99.90
7411;DHT22;3747;48.628;9.058;2023-08-01T05:25:58;17.20;99.90
7411;DHT22;3747;48.628;9.058;2023-08-01T05:28:24;17.30;99.90
7411;DHT22;3747;48.628;9.058;2023-08-01T05:30:51;17.40;99.90
7411;DHT22;3747;48.628;9.058;2023-08-01T05:33:18;17.40;99.90
7411;DHT22;3747;48.628;9.058;2023-08-01T05:35:45;17.40;99.90
7411;DHT22;3747;48.628;9.058;2023-08-01T05:38:13;17.50;99.90
7411;DHT22;3747;48.628;9.058;2023-08-01T05:40:39;17.50;99.90
7411;DHT22;3747;48.628;9.058;2023-08-01T05:43:06;17.60;99.90
7411;DHT22;3747;48.628;9.058;2023-08-01T05:45:34;17.60;99.90
7411;DHT22;3747;48.628;9.058;2023-08-01T05:48:00;17.60;99.90
7411;DHT22;3747;48.628;9.058;2023-08-01T05:50:27;17.70;99.90
7411;DHT22;3747;48.628;9.058;2023-08-01T05:52:54;17.70;99.90
7411;DHT22;3747;48.628;9.058;2023-08-01T05:55:22;17.70;99.90
7411;DHT22;3747;48.628;9.058;2023-08-01T05:57:49;17.70;99.90
7411;DHT22;3747;48.628;9.058;2023-08-01T06:00:18;17.60;99.90
7411;DHT22;3747;48.628;9.058;2023-08-01T06:02:45;17.60;99.90
7411;DHT22;3747;48.628;9.058;2023-08-01T06:05:12;17.60;99.90
7411;DHT22;3747;48.628;9.058;2023-08-01T06:07:38;17.70;99.90
7411;DHT22;3747;48.628;9.058;2023-08-01T06:10:06;17.70;99.90
7411;DHT22;3747;48.628;9.058;2023-08-01T06:12:34;17.70;99.90
7411;DHT22;3747;48.628;9.058;2023-08-01T06:15:01;17.60;99.90
7411;DHT22;3747;48.628;9.058;2023-08-01T06:17:28;17.60;99.90
7411;DHT22;3747;48.628;9.058;2023-08-01T06:19:55;17.60;99.90
7411;DHT22;3747;48.628;9.058;2023-08-01T06:22:22;17.60;99.90
7411;DHT22;3747;48.628;9.058;2023-08-01T06:24:48;17.70;99.90
7411;DHT22;3747;48.628;9.058;2023-08-01T06:27:15;17.70;99.90
7411;DHT22;3747;48.628;9.058;2023-08-01T06:29:44;17.70;99.90
7411;DHT22;3747;48.628;9.058;2023-08-01T06:32:11;17.60;99.90
7411;DHT22;3747;48.628;9.058;2023-08-01T06:34:38;17.60;99.90
7411;DHT22;3747;48.628;9.058;2023-08-01T06:37:05;17.50;99.90
7411;DHT22;3747;48.628;9.058;2023-08-01T06:39:31;17.50;99.90
7411;DHT22;3747;48.628;9.058;2023-08-01T06:41:58;17.50;99.90
7411;DHT22;3747;48.628;9.058;2023-08-01T06:44:25;17.40;99.90
7411;DHT22;3747;48.628;9.058;2023-08-01T06:46:53;17.40;99.90
7411;DHT22;3747;48.628;9.058;2023-08-01T06:49:19;17.30;99.90
7411;DHT22;3747;48.628;9.058;2023-08-01T06:51:46;17.20;99.90
7411;DHT22;3747;48.628;9.058;2023-08-01T06:54:13;17.10;99.90
7411;DHT22;3747;48.628;9.058;2023-08-01T06:56:39;17.10;99.90
7411;DHT22;3747;48.628;9.058;2023-08-01T06:59:12;17.20;99.90
7411;DHT22;3747;48.628;9.058;2023-08-01T07:01:39;17.30;99.90
7411;DHT22;3747;48.628;9.058;2023-08-01T07:04:07;17.50;99.90
7411;DHT22;3747;48.628;9.058;2023-08-01T07:06:34;17.70;99.90
7411;DHT22;3747;48.628;9.058;2023-08-01T07:09:00;17.80;99.90
7411;DHT22;3747;48.628;9.058;2023-08-01T07:11:27;18.00;99.90
7411;DHT22;3747;48.628;9.058;2023-08-01T07:13:54;17.90;99.90
7411;DHT22;3747;48.628;9.058;2023-08-01T07:16:20;17.90;99.90
7411;DHT22;3747;48.628;9.058;2023-08-01T07:18:47;17.70;99.90
7411;DHT22;3747;48.628;9.058;2023-08-01T07:21:17;17.30;99.90
7411;DHT22;3747;48.628;9.058;2023-08-01T07:23:44;17.00;99.90
7411;DHT22;3747;48.628;9.058;2023-08-01T07:26:11;16.90;99.90
7411;DHT22;3747;48.628;9.058;2023-08-01T07:28:37;17.00;99.90
7411;DHT22;3747;48.628;9.058;2023-08-01T07:31:06;17.10;99.90
7411;DHT22;3747;48.628;9.058;2023-08-01T07:33:33;17.30;99.90
7411;DHT22;3747;48.628;9.058;2023-08-01T07:36:01;17.40;99.90
7411;DHT22;3747;48.628;9.058;2023-08-01T07:38:29;17.50;99.90
7411;DHT22;3747;48.628;9.058;2023-08-01T07:40:57;17.40;99.90
7411;DHT22;3747;48.628;9.058;2023-08-01T07:43:25;17.30;99.90
7411;DHT22;3747;48.628;9.058;2023-08-01T07:45:55;16.90;99.90
7411;DHT22;3747;48.628;9.058;2023-08-01T07:48:22;16.40;99.90
7411;DHT22;3747;48.628;9.058;2023-08-01T07:50:49;16.10;99.90
7411;DHT22;3747;48.628;9.058;2023-08-01T07:53:15;15.80;99.90
7411;DHT22;3747;48.628;9.058;2023-08-01T07:55:43;15.60;99.90
7411;DHT22;3747;48.628;9.058;2023-08-01T07:58:10;15.50;99.90
7411;DHT22;3747;48.628;9.058;2023-08-01T08:00:37;15.50;99.90
7411;DHT22;3747;48.628;9.058;2023-08-01T08:03:05;15.40;99.90
7411;DHT22;3747;48.628;9.058;2023-08-01T08:05:33;15.40;99.90
7411;DHT22;3747;48.628;9.058;2023-08-01T08:08:04;15.30;99.90
7411;DHT22;3747;48.628;9.058;2023-08-01T08:10:30;15.30;99.90
7411;DHT22;3747;48.628;9.058;2023-08-01T08:12:58;15.20;99.90
7411;DHT22;3747;48.628;9.058;2023-08-01T08:15:25;15.20;99.90
7411;DHT22;3747;48.628;9.058;2023-08-01T08:17:52;15.20;99.90
7411;DHT22;3747;48.628;9.058;2023-08-01T08:20:19;15.20;99.90
7411;DHT22;3747;48.628;9.058;2023-08-01T08:22:46;15.20;99.90
7411;DHT22;3747;48.628;9.058;2023-08-01T08:25:12;15.30;99.90
7411;DHT22;3747;48.628;9.058;2023-08-01T08:27:39;15.40;99.90
7411;DHT22;3747;48.628;9.058;2023-08-01T08:30:09;15.40;99.90
7411;DHT22;3747;48.628;9.058;2023-08-01T08:32:36;15.50;99.90
7411;DHT22;3747;48.628;9.058;2023-08-01T08:35:03;15.60;99.90
7411;DHT22;3747;48.628;9.058;2023-08-01T08:37:30;15.70;99.90
7411;DHT22;3747;48.628;9.058;2023-08-01T08:39:57;15.80;99.90
7411;DHT22;3747;48.628;9.058;2023-08-01T08:42:24;16.10;99.90
7411;DHT22;3747;48.628;9.058;2023-08-01T08:44:54;16.30;99.90
7411;DHT22;3747;48.628;9.058;2023-08-01T08:47:25;16.30;99.90
7411;DHT22;3747;48.628;9.058;2023-08-01T08:49:52;16.10;99.90
7411;DHT22;3747;48.628;9.058;2023-08-01T08:52:21;16.00;99.90
7411;DHT22;3747;48.628;9.058;2023-08-01T08:54:48;16.00;99.90
7411;DHT22;3747;48.628;9.058;2023-08-01T08:57:15;16.10;99.90
7411;DHT22;3747;48.628;9.058;2023-08-01T08:59:43;16.10;99.90
7411;DHT22;3747;48.628;9.058;2023-08-01T09:02:11;16.10;99.90
7411;DHT22;3747;48.628;9.058;2023-08-01T09:04:39;16.10;99.90
7411;DHT22;3747;48.628;9.058;2023-08-01T09:07:08;16.20;99.90
7411;DHT22;3747;48.628;9.058;2023-08-01T09:09:36;16.30;99.90
7411;DHT22;3747;48.628;9.058;2023-08-01T09:12:04;16.50;99.90
7411;DHT22;3747;48.628;9.058;2023-08-01T09:14:31;16.50;99.90
7411;DHT22;3747;48.628;9.058;2023-08-01T09:17:06;16.40;99.90
7411;DHT22;3747;48.628;9.058;2023-08-01T09:19:33;16.40;99.90
7411;DHT22;3747;48.628;9.058;2023-08-01T09:22:01;16.50;99.90
7411;DHT22;3747;48.628;9.058;2023-08-01T09:24:28;16.70;99.90
7411;DHT22;3747;48.628;9.058;2023-08-01T09:27:02;16.90;99.90
7411;DHT22;3747;48.628;9.058;2023-08-01T09:29:30;16.90;99.90
7411;DHT22;3747;48.628;9.058;2023-08-01T09:31:58;16.90;99.90
7411;DHT22;3747;48.628;9.058;2023-08-01T09:34:25;16.90;99.90
7411;DHT22;3747;48.628;9.058;2023-08-01T09:36:57;16.90;99.90
7411;DHT22;3747;48.628;9.058;2023-08-01T09:39:26;16.90;99.90
7411;DHT22;3747;48.628;9.058;2023-08-01T09:41:56;16.80;99.90
7411;DHT22;3747;48.628;9.058;2023-08-01T09:44:23;16.80;99.90
7411;DHT22;3747;48.628;9.058;2023-08-01T09:46:58;16.60;99.90
7411;DHT22;3747;48.628;9.058;2023-08-01T09:49:27;16.50;99.90
7411;DHT22;3747;48.628;9.058;2023-08-01T09:51:54;16.40;99.90
7411;DHT22;3747;48.628;9.058;2023-08-01T09:54:21;16.50;99.90
7411;DHT22;3747;48.628;9.058;2023-08-01T09:56:50;16.60;99.90
7411;DHT22;3747;48.628;9.058;2023-08-01T09:59:19;16.70;99.90
7411;DHT22;3747;48.628;9.058;2023-08-01T10:01:48;16.80;99.90
7411;DHT22;3747;48.628;9.058;2023-08-01T10:04:18;16.70;99.90
7411;DHT22;3747;48.628;9.058;2023-08-01T10:06:48;16.70;99.90
7411;DHT22;3747;48.628;9.058;2023-08-01T10:09:16;16.70;99.90
7411;DHT22;3747;48.628;9.058;2023-08-01T10:11:44;16.80;99.90
7411;DHT22;3747;48.628;9.058;2023-08-01T10:14:12;16.90;99.90
7411;DHT22;3747;48.628;9.058;2023-08-01T10:16:40;16.90;99.90
7411;DHT22;3747;48.628;9.058;2023-08-01T10:19:09;17.00;99.90
7411;DHT22;3747;48.628;9.058;2023-08-01T10:21:37;17.20;99.90
7411;DHT22;3747;48.628;9.058;2023-08-01T10:24:06;17.30;99.90
7411;DHT22;3747;48.628;9.058;2023-08-01T10:26:33;17.40;99.90
7411;DHT22;3747;48.628;9.058;2023-08-01T10:29:00;17.50;99.90
7411;DHT22;3747;48.628;9.058;2023-08-01T10:31:29;17.60;99.90
7411;DHT22;3747;48.628;9.058;2023-08-01T10:34:04;17.60;99.90
7411;DHT22;3747;48.628;9.058;2023-08-01T10:36:31;17.60;99.90
7411;DHT22;3747;48.628;9.058;2023-08-01T10:39:00;17.60;99.90
7411;DHT22;3747;48.628;9.058;2023-08-01T10:41:29;17.70;99.90
7411;DHT22;3747;48.628;9.058;2023-08-01T10:44:06;17.90;99.90
7411;DHT22;3747;48.628;9.058;2023-08-01T10:46:47;18.30;99.90
7411;DHT22;3747;48.628;9.058;2023-08-01T10:49:14;18.60;99.90
7411;DHT22;3747;48.628;9.058;2023-08-01T10:51:41;19.70;99.90
7411;DHT22;3747;48.628;9.058;2023-08-01T10:54:18;20.50;99.90
7411;DHT22;3747;48.628;9.058;2023-08-01T10:56:46;21.20;99.90
7411;DHT22;3747;48.628;9.058;2023-08-01T10:59:13;21.30;99.90
7411;DHT22;3747;48.628;9.058;2023-08-01T11:01:44;21.60;99.90
7411;DHT22;3747;48.628;9.058;2023-08-01T11:04:16;21.50;99.90
7411;DHT22;3747;48.628;9.058;2023-08-01T11:06:47;21.60;99.90
7411;DHT22;3747;48.628;9.058;2023-08-01T11:09:18;21.60;99.90
7411;DHT22;3747;48.628;9.058;2023-08-01T11:11:47;21.10;99.90
7411;DHT22;3747;48.628;9.058;2023-08-01T11:14:15;20.90;99.90
7411;DHT22;3747;48.628;9.058;2023-08-01T11:16:43;20.00;99.90
7411;DHT22;3747;48.628;9.058;2023-08-01T11:19:19;19.40;99.90
7411;DHT22;3747;48.628;9.058;2023-08-01T11:21:46;19.30;99.90
7411;DHT22;3747;48.628;9.058;2023-08-01T11:24:13;19.90;99.90
7411;DHT22;3747;48.628;9.058;2023-08-01T11:26:42;20.50;99.90
7411;DHT22;3747;48.628;9.058;2023-08-01T11:29:10;20.60;99.90
7411;DHT22;3747;48.628;9.058;2023-08-01T11:31:37;21.00;99.90
7411;DHT22;3747;48.628;9.058;2023-08-01T11:34:03;20.80;99.90
7411;DHT22;3747;48.628;9.058;2023-08-01T11:36:32;20.70;99.90
7411;DHT22;3747;48.628;9.058;2023-08-01T11:39:00;20.80;99.90
7411;DHT22;3747;48.628;9.058;2023-08-01T11:41:28;21.40;99.90
7411;DHT22;3747;48.628;9.058;2023-08-01T11:43:55;21.60;99.90
7411;DHT22;3747;48.628;9.058;2023-08-01T11:46:29;21.80;99.90
7411;DHT22;3747;48.628;9.058;2023-08-01T11:48:56;22.20;99.90
7411;DHT22;3747;48.628;9.058;2023-08-01T11:51:24;22.40;99.90
7411;DHT22;3747;48.628;9.058;2023-08-01T11:53:59;21.40;99.90
7411;DHT22;3747;48.628;9.058;2023-08-01T11:56:27;21.10;99.90
7411;DHT22;3747;48.628;9.058;2023-08-01T11:58:54;21.20;99.90
7411;DHT22;3747;48.628;9.058;2023-08-01T12:01:20;21.70;99.90
7411;DHT22;3747;48.628;9.058;2023-08-01T12:03:48;21.00;99.90
7411;DHT22;3747;48.628;9.058;2023-08-01T12:06:16;21.20;99.90
7411;DHT22;3747;48.628;9.058;2023-08-01T12:08:44;21.00;99.90
7411;DHT22;3747;48.628;9.058;2023-08-01T12:11:23;20.30;99.90
7411;DHT22;3747;48.628;9.058;2023-08-01T12:14:09;20.60;99.90
7411;DHT22;3747;48.628;9.058;2023-08-01T12:16:36;20.40;99.90
7411;DHT22;3747;48.628;9.058;2023-08-01T12:19:03;21.00;99.90
7411;DHT22;3747;48.628;9.058;2023-08-01T12:21:31;21.80;99.90
7411;DHT22;3747;48.628;9.058;2023-08-01T12:23:58;21.90;99.90
7411;DHT22;3747;48.628;9.058;2023-08-01T12:26:27;21.60;99.90
7411;DHT22;3747;48.628;9.058;2023-08-01T12:28:53;21.30;99.90
7411;DHT22;3747;48.628;9.058;2023-08-01T12:31:21;21.60;99.90
7411;DHT22;3747;48.628;9.058;2023-08-01T12:33:48;22.50;99.90
7411;DHT22;3747;48.628;9.058;2023-08-01T12:36:15;22.80;99.90
7411;DHT22;3747;48.628;9.058;2023-08-01T12:38:42;22.80;99.90
7411;DHT22;3747;48.628;9.058;2023-08-01T12:41:09;22.40;99.90
7411;DHT22;3747;48.628;9.058;2023-08-01T12:43:37;22.70;99.90
7411;DHT22;3747;48.628;9.058;2023-08-01T12:46:04;23.50;99.90
7411;DHT22;3747;48.628;9.058;2023-08-01T12:48:30;24.10;99.90
7411;DHT22;3747;48.628;9.058;2023-08-01T12:50:57;23.50;99.90
7411;DHT22;3747;48.628;9.058;2023-08-01T12:53:24;22.80;99.90
7411;DHT22;3747;48.628;9.058;2023-08-01T12:55:51;22.80;99.90
7411;DHT22;3747;48.628;9.058;2023-08-01T12:58:18;23.10;99.90
7411;DHT22;3747;48.628;9.058;2023-08-01T13:00:46;23.00;99.90
7411;DHT22;3747;48.628;9.058;2023-08-01T13:03:13;23.30;99.90
7411;DHT22;3747;48.628;9.058;2023-08-01T13:05:42;23.50;99.90
7411;DHT22;3747;48.628;9.058;2023-08-01T13:08:09;22.00;99.90
7411;DHT22;3747;48.628;9.058;2023-08-01T13:10:37;22.10;99.90
7411;DHT22;3747;48.628;9.058;2023-08-01T13:13:04;22.70;99.90
7411;DHT22;3747;48.628;9.058;2023-08-01T13:15:31;22.40;99.90
7411;DHT22;3747;48.628;9.058;2023-08-01T13:17:59;22.60;99.90
7411;DHT22;3747;48.628;9.058;2023-08-01T13:20:26;22.60;99.90
7411;DHT22;3747;48.628;9.058;2023-08-01T13:22:53;21.50;99.90
7411;DHT22;3747;48.628;9.058;2023-08-01T13:25:19;21.00;99.90
7411;DHT22;3747;48.628;9.058;2023-08-01T13:27:46;21.60;99.90
7411;DHT22;3747;48.628;9.058;2023-08-01T13:30:13;22.70;99.90
7411;DHT22;3747;48.628;9.058;2023-08-01T13:32:43;23.70;99.90
7411;DHT22;3747;48.628;9.058;2023-08-01T13:35:11;23.50;99.90
7411;DHT22;3747;48.628;9.058;2023-08-01T13:37:38;23.70;99.90
7411;DHT22;3747;48.628;9.058;2023-08-01T13:40:06;24.60;99.90
7411;DHT22;3747;48.628;9.058;2023-08-01T13:42:32;24.70;99.90
7411;DHT22;3747;48.628;9.058;2023-08-01T13:44:59;24.60;99.90
7411;DHT22;3747;48.628;9.058;2023-08-01T13:47:26;23.80;99.90
7411;DHT22;3747;48.628;9.058;2023-08-01T13:49:53;22.40;99.90
7411;DHT22;3747;48.628;9.058;2023-08-01T13:52:21;22.20;99.90
7411;DHT22;3747;48.628;9.058;2023-08-01T13:54:47;23.00;99.90
7411;DHT22;3747;48.628;9.058;2023-08-01T13:57:14;23.50;99.90
7411;DHT22;3747;48.628;9.058;2023-08-01T13:59:41;23.80;99.90
7411;DHT22;3747;48.628;9.058;2023-08-01T14:02:08;22.60;99.90
7411;DHT22;3747;48.628;9.058;2023-08-01T14:04:35;22.50;99.90
7411;DHT22;3747;48.628;9.058;2023-08-01T14:07:02;23.10;99.90
7411;DHT22;3747;48.628;9.058;2023-08-01T14:09:30;23.50;99.90
7411;DHT22;3747;48.628;9.058;2023-08-01T14:11:58;23.50;99.90
7411;DHT22;3747;48.628;9.058;2023-08-01T14:14:24;24.00;99.90
7411;DHT22;3747;48.628;9.058;2023-08-01T14:16:51;24.10;99.90
7411;DHT22;3747;48.628;9.058;2023-08-01T14:19:18;24.00;99.90
7411;DHT22;3747;48.628;9.058;2023-08-01T14:21:44;24.10;99.90
7411;DHT22;3747;48.628;9.058;2023-08-01T14:24:11;23.60;99.90
7411;DHT22;3747;48.628;9.058;2023-08-01T14:26:39;23.50;99.90
7411;DHT22;3747;48.628;9.058;2023-08-01T14:29:06;23.90;99.90
7411;DHT22;3747;48.628;9.058;2023-08-01T14:31:33;24.20;99.90
7411;DHT22;3747;48.628;9.058;2023-08-01T14:34:00;24.10;99.90
7411;DHT22;3747;48.628;9.058;2023-08-01T14:36:26;24.20;99.90
7411;DHT22;3747;48.628;9.058;2023-08-01T14:38:53;24.50;99.90
7411;DHT22;3747;48.628;9.058;2023-08-01T14:41:22;24.60;99.90
7411;DHT22;3747;48.628;9.058;2023-08-01T14:43:50;24.80;99.90
7411;DHT22;3747;48.628;9.058;2023-08-01T14:46:16;24.40;99.70
7411;DHT22;3747;48.628;9.058;2023-08-01T14:48:43;23.30;99.90
7411;DHT22;3747;48.628;9.058;2023-08-01T14:51:11;23.20;99.80
7411;DHT22;3747;48.628;9.058;2023-08-01T14:53:38;22.40;99.90
7411;DHT22;3747;48.628;9.058;2023-08-01T14:56:04;21.50;99.90
7411;DHT22;3747;48.628;9.058;2023-08-01T14:58:33;21.20;99.90
7411;DHT22;3747;48.628;9.058;2023-08-01T15:01:11;20.90;99.90
7411;DHT22;3747;48.628;9.058;2023-08-01T15:03:37;20.90;99.90
7411;DHT22;3747;48.628;9.058;2023-08-01T15:06:07;21.00;99.90
7411;DHT22;3747;48.628;9.058;2023-08-01T15:08:34;20.90;99.90
7411;DHT22;3747;48.628;9.058;2023-08-01T15:11:05;21.50;99.90
7411;DHT22;3747;48.628;9.058;2023-08-01T15:13:31;22.70;99.90
7411;DHT22;3747;48.628;9.058;2023-08-01T15:15:58;22.20;99.90
7411;DHT22;3747;48.628;9.058;2023-08-01T15:18:27;22.00;99.90
7411;DHT22;3747;48.628;9.058;2023-08-01T15:20:54;22.50;99.90
7411;DHT22;3747;48.628;9.058;2023-08-01T15:23:21;21.70;99.90
7411;DHT22;3747;48.628;9.058;2023-08-01T15:25:52;21.80;99.90
7411;DHT22;3747;48.628;9.058;2023-08-01T15:28:19;22.60;99.90
7411;DHT22;3747;48.628;9.058;2023-08-01T15:30:45;22.90;99.90
7411;DHT22;3747;48.628;9.058;2023-08-01T15:33:13;22.20;99.90
7411;DHT22;3747;48.628;9.058;2023-08-01T15:35:42;22.30;99.90
7411;DHT22;3747;48.628;9.058;2023-08-01T15:38:09;22.80;99.90
7411;DHT22;3747;48.628;9.058;2023-08-01T15:40:36;23.40;99.90
7411;DHT22;3747;48.628;9.058;2023-08-01T15:43:02;23.70;99.90
7411;DHT22;3747;48.628;9.058;2023-08-01T15:45:29;23.90;99.90
7411;DHT22;3747;48.628;9.058;2023-08-01T15:47:56;24.50;99.90
7411;DHT22;3747;48.628;9.058;2023-08-01T15:50:23;24.50;99.90
7411;DHT22;3747;48.628;9.058;2023-08-01T15:52:51;23.90;99.90
7411;DHT22;3747;48.628;9.058;2023-08-01T15:55:17;23.50;99.90
7411;DHT22;3747;48.628;9.058;2023-08-01T15:57:44;23.80;99.90
7411;DHT22;3747;48.628;9.058;2023-08-01T16:00:11;23.90;99.90
7411;DHT22;3747;48.628;9.058;2023-08-01T16:02:38;23.60;99.90
7411;DHT22;3747;48.628;9.058;2023-08-01T16:05:05;23.90;99.90